Naniwa Maru No.21 — JG5648 — position and weather

sailwx.info

Track history (hours):
 
Tides and Currents Weather Stations Pressure Air Temp Water Temp Dewpoint Dewpoint Depression Visibility Wind Speed Wind Dir Waves Ship Positions

Naniwa Maru No.21

Last reported at 2014-Sep-19 07:30 UTC. Time now 2014-Sep-19 09:54 UTC.
Position N 34°08' E 134°58'.

Length 71 m; draft 5.3 m.

Type: Tanker. MMSI: 431301595.

Date/timePositionNaut miles runAvg speedWind from/ knotsBaromVisibWave heightAir tempDewpointWater temp
2014-Sep-19 07:30N 34°08' E 134°58'8 7.0
2014-Sep-19 06:25N 34°07' E 135°07'0 0.0
2014-Sep-19 05:31N 34°07' E 135°07'0 0.0
2014-Sep-19 04:31N 34°07' E 135°07'1 0.2
2014-Sep-19 02:17N 34°07' E 135°07'911.8
2014-Sep-19 01:31N 34°08' E 134°56'22511.8
2014-Sep-18 06:21N 33°51' E 130°25'1012.9
2014-Sep-18 05:33N 33°43' E 130°17'6 5.6
2014-Sep-18 04:29N 33°38' E 130°20'3 3.2
2014-Sep-18 03:33N 33°39' E 130°17'2 2.3
2014-Sep-18 02:33N 33°38' E 130°19'3 3.3
2014-Sep-18 01:32N 33°36' E 130°23'0 0.0
2014-Sep-18 00:33N 33°36' E 130°23'0 0.0
2014-Sep-17 23:33N 33°36' E 130°23'0 0.0
2014-Sep-17 22:33N 33°36' E 130°23'0 0.4
2014-Sep-17 21:33N 33°36' E 130°23'2 1.9
2014-Sep-17 20:33N 33°38' E 130°21'0 0.0
2014-Sep-17 19:32N 33°38' E 130°21'0 0.0
2014-Sep-17 18:32N 33°38' E 130°21'0 0.1
2014-Sep-17 17:31N 33°38' E 130°21'9 9.7
2014-Sep-17 16:33N 33°47' E 130°18'11 0.3
2014-Sep-16 02:20N 33°53' E 130°28'1013.2
2014-Sep-16 01:33N 33°46' E 130°19'9 9.2
2014-Sep-16 00:33N 33°37' E 130°23'1 0.8
2014-Sep-15 23:31N 33°37' E 130°24'0 0.0
2014-Sep-15 22:31N 33°37' E 130°24'0 0.0
2014-Sep-15 21:31N 33°37' E 130°24'0 0.0
2014-Sep-15 20:31N 33°37' E 130°24'0 0.0
2014-Sep-15 19:31N 33°37' E 130°24'0 0.0
2014-Sep-15 18:31N 33°37' E 130°24'0 0.0
2014-Sep-15 17:25N 33°37' E 130°24'0 0.0
2014-Sep-15 16:31N 33°37' E 130°24'0 0.0
2014-Sep-15 15:31N 33°37' E 130°24'0 0.0
2014-Sep-15 14:31N 33°37' E 130°24'0 0.0
2014-Sep-15 13:31N 33°37' E 130°24'0 0.0
2014-Sep-15 12:31N 33°37' E 130°24'0 0.0
2014-Sep-15 11:31N 33°37' E 130°24'0 0.0
2014-Sep-15 10:31N 33°37' E 130°24'0 0.0
2014-Sep-15 09:31N 33°37' E 130°24'0 0.0
2014-Sep-15 08:31N 33°37' E 130°24'0 0.0
2014-Sep-15 07:16N 33°37' E 130°24'0 0.0
2014-Sep-15 06:31N 33°37' E 130°24'0 0.0
2014-Sep-15 05:31N 33°37' E 130°24'0 0.1
2014-Sep-15 04:32N 33°37' E 130°24'7 6.9
2014-Sep-15 03:33N 33°38' E 130°16'1 1.2
2014-Sep-15 02:32N 33°39' E 130°17'5 5.2
2014-Sep-15 01:32N 33°36' E 130°23'0 0.0
2014-Sep-15 00:32N 33°36' E 130°23'0 0.0
2014-Sep-14 23:31N 33°36' E 130°23'0 0.0
2014-Sep-14 22:32N 33°36' E 130°23'1 0.7
2014-Sep-14 21:33N 33°37' E 130°23'2 1.8
2014-Sep-14 20:33N 33°38' E 130°21'0 0.0
2014-Sep-14 19:32N 33°38' E 130°21'0 0.0
2014-Sep-14 18:33N 33°38' E 130°21'0 0.0
2014-Sep-14 17:32N 33°38' E 130°21'0 0.0
2014-Sep-14 16:32N 33°38' E 130°21'0 0.0
2014-Sep-14 15:33N 33°38' E 130°21'0 0.0
2014-Sep-14 14:30N 33°38' E 130°21'0 0.0
2014-Sep-14 13:33N 33°38' E 130°21'0 0.0
2014-Sep-14 12:33N 33°37' E 130°21'0 0.0
2014-Sep-14 11:33N 33°37' E 130°21'0 0.0
2014-Sep-14 10:33N 33°37' E 130°21'0 0.0
2014-Sep-14 09:33N 33°37' E 130°21'0 0.0
2014-Sep-14 08:33N 33°37' E 130°21'0 0.0
2014-Sep-14 07:33N 33°38' E 130°21'0 0.0
2014-Sep-14 06:33N 33°38' E 130°21'5 4.7
2014-Sep-14 05:32N 33°40' E 130°16'24111.4
2014-Sep-13 08:25N 34°08' E 135°05'3 2.5
2014-Sep-13 07:24N 34°07' E 135°07'0 0.0
2014-Sep-13 06:33N 34°07' E 135°07'0 0.0
2014-Sep-13 05:33N 34°07' E 135°07'0 0.0
2014-Sep-13 04:27N 34°07' E 135°07'1 0.7
2014-Sep-13 03:29N 34°08' E 135°07'0 0.1
2014-Sep-13 02:32N 34°08' E 135°07'1211.2
2014-Sep-13 01:30N 34°17' E 134°59'1512.5
2014-Sep-13 00:16N 34°32' E 135°02'6 7.6
2014-Sep-12 23:30N 34°36' E 134°57'  
Track history (hours):
 
Tides and Currents Weather Stations Pressure Air Temp Water Temp Dewpoint Dewpoint Depression Visibility Wind Speed Wind Dir Waves Ship Positions

Naniwa Maru No.21

Last reported at 2014-Sep-19 07:30 UTC. Time now 2014-Sep-19 09:54 UTC.
Position N 34°08' E 134°58'.

Length 71 m; draft 5.3 m.

Type: Tanker. MMSI: 431301595.

Date/timePositionNaut miles runAvg speedWind from/ knotsBaromVisibWave heightAir tempDewpointWater temp
2014-Sep-19 07:30N 34°08' E 134°58'8 7.0
2014-Sep-19 06:25N 34°07' E 135°07'0 0.0
2014-Sep-19 05:31N 34°07' E 135°07'0 0.0
2014-Sep-19 04:31N 34°07' E 135°07'1 0.2
2014-Sep-19 02:17N 34°07' E 135°07'911.8
2014-Sep-19 01:31N 34°08' E 134°56'22511.8
2014-Sep-18 06:21N 33°51' E 130°25'1012.9
2014-Sep-18 05:33N 33°43' E 130°17'6 5.6
2014-Sep-18 04:29N 33°38' E 130°20'3 3.2
2014-Sep-18 03:33N 33°39' E 130°17'2 2.3
2014-Sep-18 02:33N 33°38' E 130°19'3 3.3
2014-Sep-18 01:32N 33°36' E 130°23'0 0.0
2014-Sep-18 00:33N 33°36' E 130°23'0 0.0
2014-Sep-17 23:33N 33°36' E 130°23'0 0.0
2014-Sep-17 22:33N 33°36' E 130°23'0 0.4
2014-Sep-17 21:33N 33°36' E 130°23'2 1.9
2014-Sep-17 20:33N 33°38' E 130°21'0 0.0
2014-Sep-17 19:32N 33°38' E 130°21'0 0.0
2014-Sep-17 18:32N 33°38' E 130°21'0 0.1
2014-Sep-17 17:31N 33°38' E 130°21'9 9.7
2014-Sep-17 16:33N 33°47' E 130°18'11 0.3
2014-Sep-16 02:20N 33°53' E 130°28'1013.2
2014-Sep-16 01:33N 33°46' E 130°19'9 9.2
2014-Sep-16 00:33N 33°37' E 130°23'1 0.8
2014-Sep-15 23:31N 33°37' E 130°24'0 0.0
2014-Sep-15 22:31N 33°37' E 130°24'0 0.0
2014-Sep-15 21:31N 33°37' E 130°24'0 0.0
2014-Sep-15 20:31N 33°37' E 130°24'0 0.0
2014-Sep-15 19:31N 33°37' E 130°24'0 0.0
2014-Sep-15 18:31N 33°37' E 130°24'0 0.0
2014-Sep-15 17:25N 33°37' E 130°24'0 0.0
2014-Sep-15 16:31N 33°37' E 130°24'0 0.0
2014-Sep-15 15:31N 33°37' E 130°24'0 0.0
2014-Sep-15 14:31N 33°37' E 130°24'0 0.0
2014-Sep-15 13:31N 33°37' E 130°24'0 0.0
2014-Sep-15 12:31N 33°37' E 130°24'0 0.0
2014-Sep-15 11:31N 33°37' E 130°24'0 0.0
2014-Sep-15 10:31N 33°37' E 130°24'0 0.0
2014-Sep-15 09:31N 33°37' E 130°24'0 0.0
2014-Sep-15 08:31N 33°37' E 130°24'0 0.0
2014-Sep-15 07:16N 33°37' E 130°24'0 0.0
2014-Sep-15 06:31N 33°37' E 130°24'0 0.0
2014-Sep-15 05:31N 33°37' E 130°24'0 0.1
2014-Sep-15 04:32N 33°37' E 130°24'7 6.9
2014-Sep-15 03:33N 33°38' E 130°16'1 1.2
2014-Sep-15 02:32N 33°39' E 130°17'5 5.2
2014-Sep-15 01:32N 33°36' E 130°23'0 0.0
2014-Sep-15 00:32N 33°36' E 130°23'0 0.0
2014-Sep-14 23:31N 33°36' E 130°23'0 0.0
2014-Sep-14 22:32N 33°36' E 130°23'1 0.7
2014-Sep-14 21:33N 33°37' E 130°23'2 1.8
2014-Sep-14 20:33N 33°38' E 130°21'0 0.0
2014-Sep-14 19:32N 33°38' E 130°21'0 0.0
2014-Sep-14 18:33N 33°38' E 130°21'0 0.0
2014-Sep-14 17:32N 33°38' E 130°21'0 0.0
2014-Sep-14 16:32N 33°38' E 130°21'0 0.0
2014-Sep-14 15:33N 33°38' E 130°21'0 0.0
2014-Sep-14 14:30N 33°38' E 130°21'0 0.0
2014-Sep-14 13:33N 33°38' E 130°21'0 0.0
2014-Sep-14 12:33N 33°37' E 130°21'0 0.0
2014-Sep-14 11:33N 33°37' E 130°21'0 0.0
2014-Sep-14 10:33N 33°37' E 130°21'0 0.0
2014-Sep-14 09:33N 33°37' E 130°21'0 0.0
2014-Sep-14 08:33N 33°37' E 130°21'0 0.0
2014-Sep-14 07:33N 33°38' E 130°21'0 0.0
2014-Sep-14 06:33N 33°38' E 130°21'5 4.7
2014-Sep-14 05:32N 33°40' E 130°16'24111.4
2014-Sep-13 08:25N 34°08' E 135°05'3 2.5
2014-Sep-13 07:24N 34°07' E 135°07'0 0.0
2014-Sep-13 06:33N 34°07' E 135°07'0 0.0
2014-Sep-13 05:33N 34°07' E 135°07'0 0.0
2014-Sep-13 04:27N 34°07' E 135°07'1 0.7
2014-Sep-13 03:29N 34°08' E 135°07'0 0.1
2014-Sep-13 02:32N 34°08' E 135°07'1211.2
2014-Sep-13 01:30N 34°17' E 134°59'1512.5
2014-Sep-13 00:16N 34°32' E 135°02'6 7.6
2014-Sep-12 23:30N 34°36' E 134°57'  

Dump ship's entire track history